createdAt,value
2023-03-02T00:00:34.790Z,3.43
2023-03-02T00:05:50.656Z,3.51
2023-03-02T00:10:54.945Z,3.54
2023-03-02T00:15:58.431Z,3.59
2023-03-02T00:21:02.131Z,3.61
2023-03-02T00:26:06.881Z,3.68
2023-03-02T00:31:10.429Z,3.76
2023-03-02T00:36:18.322Z,3.82
2023-03-02T00:41:22.145Z,3.83
2023-03-02T00:46:26.322Z,3.90
2023-03-02T00:51:29.766Z,3.98
2023-03-02T00:56:34.210Z,3.92
2023-03-02T01:01:38.640Z,3.89
2023-03-02T01:06:47.502Z,3.90
2023-03-02T01:11:51.104Z,3.86
2023-03-02T01:16:55.027Z,3.82
2023-03-02T01:21:58.752Z,3.81
2023-03-02T01:27:02.173Z,3.84
2023-03-02T01:32:06.378Z,3.84
2023-03-02T01:37:10.123Z,3.76
2023-03-02T01:42:13.736Z,3.72
2023-03-02T01:47:31.590Z,3.66
2023-03-02T01:52:38.500Z,3.55
2023-03-02T01:57:46.820Z,3.46
2023-03-02T02:02:51.763Z,3.33
2023-03-02T02:07:55.276Z,3.18
2023-03-02T02:12:58.898Z,3.07
2023-03-02T02:18:02.612Z,2.97
2023-03-02T02:23:27.674Z,2.89
2023-03-02T02:28:41.081Z,2.81
2023-03-02T02:33:49.719Z,2.70
2023-03-02T02:38:56.777Z,2.61
2023-03-02T02:44:00.230Z,2.51
2023-03-02T02:49:06.509Z,2.42
2023-03-02T02:54:17.805Z,2.36
2023-03-02T02:59:29.307Z,2.35
2023-03-02T03:04:33.679Z,2.36
2023-03-02T03:09:37.239Z,2.36
2023-03-02T03:14:42.006Z,2.32
2023-03-02T03:19:46.851Z,2.29
2023-03-02T03:24:50.362Z,2.25
2023-03-02T03:29:54.188Z,2.20
2023-03-02T03:34:57.604Z,2.21
2023-03-02T03:40:01.336Z,2.19
2023-03-02T03:45:07.044Z,2.17
2023-03-02T03:50:11.446Z,2.21
2023-03-02T03:55:15.442Z,2.28
2023-03-02T04:00:19.379Z,2.40
2023-03-02T04:05:23.087Z,2.43
2023-03-02T04:10:26.501Z,2.45
2023-03-02T04:15:31.036Z,2.48
2023-03-02T04:20:34.691Z,2.50
2023-03-02T04:25:38.168Z,2.48
2023-03-02T04:30:41.741Z,2.47
2023-03-02T04:35:45.467Z,2.46
2023-03-02T04:40:49.138Z,2.50
2023-03-02T04:45:54.516Z,2.56
2023-03-02T04:50:57.987Z,2.55
2023-03-02T04:56:01.696Z,2.54
2023-03-02T05:01:05.866Z,2.57
2023-03-02T05:06:10.472Z,2.53
2023-03-02T05:11:24.983Z,2.51
2023-03-02T05:16:29.623Z,2.48
2023-03-02T05:21:33.244Z,2.47
2023-03-02T05:26:37.777Z,2.40
2023-03-02T05:31:42.288Z,2.32
2023-03-02T05:36:46.866Z,2.30
2023-03-02T05:41:50.374Z,2.28
2023-03-02T05:46:54.184Z,2.18
2023-03-02T05:51:57.812Z,2.20
2023-03-02T05:57:01.226Z,2.19
2023-03-02T06:02:04.761Z,2.25
2023-03-02T06:07:08.365Z,2.34
2023-03-02T06:12:11.771Z,2.41
2023-03-02T06:17:15.525Z,2.55
2023-03-02T06:22:20.129Z,2.59
2023-03-02T06:27:23.650Z,2.65
2023-03-02T06:32:27.328Z,2.71
2023-03-02T06:37:31.968Z,2.85
2023-03-02T06:42:35.429Z,3.13
2023-03-02T06:47:39.665Z,3.17
2023-03-02T06:52:43.070Z,3.34
2023-03-02T06:57:46.685Z,3.50
2023-03-02T07:02:51.748Z,3.67
2023-03-02T07:07:55.360Z,3.70
2023-03-02T07:12:59.100Z,3.49
2023-03-02T07:18:02.689Z,3.31
2023-03-02T07:23:07.135Z,3.46
2023-03-02T07:28:10.642Z,3.57
2023-03-02T07:33:14.053Z,3.69
2023-03-02T07:38:17.672Z,3.73
2023-03-02T07:43:21.202Z,3.83
2023-03-02T07:48:24.808Z,3.87
2023-03-02T07:53:29.227Z,4.03
2023-03-02T07:58:32.557Z,4.18
2023-03-02T08:03:36.822Z,4.29
2023-03-02T08:08:40.197Z,4.23
2023-03-02T08:13:44.659Z,4.18
2023-03-02T08:18:48.040Z,4.02
2023-03-02T08:23:52.514Z,4.06
2023-03-02T08:28:56.428Z,4.10
2023-03-02T08:34:00.246Z,4.15
2023-03-02T08:39:03.964Z,4.29
2023-03-02T08:44:07.906Z,4.38
2023-03-02T08:49:11.602Z,4.57
2023-03-02T08:54:15.116Z,4.65
2023-03-02T08:59:18.839Z,4.76
2023-03-02T09:04:22.450Z,4.75
2023-03-02T09:09:26.183Z,4.84
2023-03-02T09:14:29.687Z,4.91
2023-03-02T09:19:44.175Z,4.95
2023-03-02T09:24:48.193Z,4.98
2023-03-02T09:29:51.810Z,4.83
2023-03-02T09:34:55.324Z,4.64
2023-03-02T09:39:58.943Z,4.55
2023-03-02T09:45:15.976Z,4.67
2023-03-02T09:50:34.248Z,4.75
2023-03-02T09:55:38.830Z,4.77
2023-03-02T10:00:44.302Z,4.71
2023-03-02T10:05:54.411Z,4.65
2023-03-02T10:11:36.742Z,4.61
2023-03-02T10:17:28.171Z,4.66
2023-03-02T10:22:44.998Z,4.91
2023-03-02T10:27:52.925Z,4.84
2023-03-02T10:33:01.040Z,4.92
2023-03-02T10:38:17.891Z,5.01
2023-03-02T10:43:27.528Z,5.10
2023-03-02T10:48:31.347Z,5.22
2023-03-02T10:53:35.989Z,5.32
2023-03-02T10:58:39.607Z,5.42
2023-03-02T11:03:43.450Z,5.52
2023-03-02T11:08:46.960Z,5.71
2023-03-02T11:13:50.360Z,5.84
2023-03-02T11:18:59.923Z,5.91
2023-03-02T11:24:10.570Z,6.02
2023-03-02T11:30:02.350Z,6.12
2023-03-02T11:35:22.869Z,6.22
2023-03-02T11:40:42.843Z,6.32
2023-03-02T11:45:49.398Z,6.42
2023-03-02T11:51:04.232Z,6.49
2023-03-02T11:56:07.648Z,6.55
2023-03-02T12:01:18.636Z,6.63
2023-03-02T12:06:21.951Z,6.67
2023-03-02T12:11:34.487Z,6.84
2023-03-02T12:16:43.210Z,6.92
2023-03-02T12:22:02.374Z,7.01
2023-03-02T12:27:21.174Z,7.12
2023-03-02T12:32:29.262Z,7.20
2023-03-02T12:37:54.023Z,7.24
2023-03-02T12:43:20.014Z,7.23
2023-03-02T12:48:45.536Z,7.36
2023-03-02T12:53:50.839Z,7.57
2023-03-02T12:58:55.276Z,7.68
2023-03-02T13:03:58.804Z,7.86
2023-03-02T13:09:02.457Z,8.01
2023-03-02T13:14:26.708Z,8.11
2023-03-02T13:19:32.100Z,8.15
2023-03-02T13:24:47.255Z,8.19
2023-03-02T13:29:52.965Z,8.28
2023-03-02T13:35:02.894Z,8.31
2023-03-02T13:40:22.081Z,8.41
2023-03-02T13:45:32.761Z,8.52
2023-03-02T13:50:36.247Z,8.63
2023-03-02T13:55:40.501Z,8.76
2023-03-02T14:00:44.114Z,8.89
2023-03-02T14:05:47.632Z,8.93
2023-03-02T14:10:54.307Z,9.00
2023-03-02T14:15:58.173Z,9.02
2023-03-02T14:21:01.909Z,8.92
2023-03-02T14:26:26.723Z,8.79
2023-03-02T14:31:30.744Z,8.83
2023-03-02T14:36:35.155Z,8.88
2023-03-02T14:41:52.416Z,8.84
2023-03-02T14:47:00.088Z,8.80
2023-03-02T14:52:06.784Z,8.82
2023-03-02T14:57:18.203Z,8.85
2023-03-02T15:02:26.123Z,8.69
2023-03-02T15:07:30.546Z,8.77
2023-03-02T15:12:34.780Z,10.05
2023-03-02T15:17:38.193Z,13.13
2023-03-02T15:22:41.607Z,15.77
2023-03-02T15:27:45.130Z,17.81
2023-03-02T15:32:48.533Z,19.26
2023-03-02T15:37:52.764Z,20.12
2023-03-02T15:42:56.387Z,20.62
2023-03-02T15:48:00.021Z,21.31
2023-03-02T15:53:03.832Z,21.91
2023-03-02T15:58:09.586Z,21.63
2023-03-02T16:03:14.894Z,20.83
2023-03-02T16:08:18.667Z,19.55
2023-03-02T16:13:22.081Z,17.49
2023-03-02T16:18:25.495Z,14.67
2023-03-02T16:23:28.922Z,12.52
2023-03-02T16:28:32.432Z,10.91
2023-03-02T16:33:36.556Z,9.71
2023-03-02T16:38:40.378Z,8.76
2023-03-02T16:43:53.724Z,7.93
2023-03-02T16:48:58.741Z,7.28
2023-03-02T16:54:02.656Z,6.71
2023-03-02T16:59:06.123Z,6.22
2023-03-02T17:04:09.704Z,5.85
2023-03-02T17:09:13.653Z,5.52
2023-03-02T17:14:17.147Z,5.24
2023-03-02T17:19:23.660Z,5.03
2023-03-02T17:24:28.722Z,4.82
2023-03-02T17:29:32.250Z,4.61
2023-03-02T17:34:36.923Z,4.46
2023-03-02T17:39:41.997Z,4.32
2023-03-02T17:44:45.541Z,4.21
2023-03-02T17:49:49.153Z,4.14
2023-03-02T17:54:54.155Z,4.05
2023-03-02T17:59:57.821Z,3.98
2023-03-02T18:05:01.438Z,3.85
2023-03-02T18:10:07.240Z,3.77
2023-03-02T18:15:12.089Z,3.67
2023-03-02T18:20:16.181Z,3.57
2023-03-02T18:25:19.800Z,3.45
2023-03-02T18:30:23.623Z,3.33
2023-03-02T18:35:27.034Z,3.26
2023-03-02T18:40:30.855Z,3.20
2023-03-02T18:45:34.579Z,3.14
2023-03-02T18:50:39.833Z,3.06
2023-03-02T18:55:43.367Z,2.93
2023-03-02T19:00:47.586Z,2.87
2023-03-02T19:05:53.476Z,2.79
2023-03-02T19:10:57.278Z,2.74
2023-03-02T19:16:02.187Z,2.72
2023-03-02T19:21:05.994Z,2.73
2023-03-02T19:26:10.077Z,2.71
2023-03-02T19:31:13.960Z,2.69
2023-03-02T19:36:17.423Z,2.68
2023-03-02T19:41:21.759Z,2.72
2023-03-02T19:46:25.161Z,2.71
2023-03-02T19:51:29.150Z,2.68
2023-03-02T19:56:35.371Z,2.63
2023-03-02T20:01:39.712Z,2.56
2023-03-02T20:06:43.168Z,2.50
2023-03-02T20:11:47.874Z,2.43
2023-03-02T20:16:51.875Z,2.40
2023-03-02T20:21:55.705Z,2.32
2023-03-02T20:26:59.225Z,2.25
2023-03-02T20:32:05.365Z,2.11
2023-03-02T20:37:09.638Z,1.99
2023-03-02T20:42:13.663Z,1.92
2023-03-02T20:47:17.279Z,1.82
2023-03-02T20:52:20.692Z,1.72
2023-03-02T20:57:24.502Z,1.61
2023-03-02T21:02:28.436Z,1.55
2023-03-02T21:07:33.078Z,1.47
2023-03-02T21:12:36.594Z,1.38
2023-03-02T21:17:40.215Z,1.29
2023-03-02T21:22:43.828Z,1.11
2023-03-02T21:27:47.756Z,0.88
2023-03-02T21:32:51.797Z,0.70
2023-03-02T21:37:58.495Z,0.57
2023-03-02T21:43:02.603Z,0.44
2023-03-02T21:48:07.353Z,0.38
2023-03-02T21:53:10.864Z,0.32
2023-03-02T21:58:14.278Z,0.26
2023-03-02T22:03:17.902Z,0.21
2023-03-02T22:08:22.248Z,0.21
2023-03-02T22:13:27.485Z,0.19
2023-03-02T22:18:32.131Z,0.16
2023-03-02T22:23:35.954Z,0.10
2023-03-02T22:28:41.313Z,0.03
2023-03-02T22:33:45.648Z,-0.02
2023-03-02T22:38:48.964Z,-0.05
2023-03-02T22:43:53.296Z,-0.08
2023-03-02T22:48:57.138Z,-0.11
2023-03-02T22:54:01.355Z,-0.15
2023-03-02T22:59:22.887Z,-0.18
2023-03-02T23:04:30.929Z,-0.19
2023-03-02T23:09:35.970Z,-0.22
2023-03-02T23:14:48.803Z,-0.21
2023-03-02T23:19:52.317Z,-0.24
2023-03-02T23:24:57.093Z,-0.24
2023-03-02T23:30:00.579Z,-0.24
2023-03-02T23:35:04.494Z,-0.26
2023-03-02T23:40:12.120Z,-0.28
2023-03-02T23:45:17.090Z,-0.26
2023-03-02T23:50:20.674Z,-0.29
2023-03-02T23:55:24.079Z,-0.32
